Time;durP1;ratioP1;P1;durP2;ratioP2;P2;SDS_P1;SDS_P2;PMS_P1;PMS_P2;Temp;Humidity;BMP_temperature;BMP_pressure;BME280_temperature;BME280_humidity;BME280_pressure;Samples;Min_cycle;Max_cycle;Signal;HPM_P1;HPM_P2
2022/04/06 00:02:11;;;;;;;15.47;12.13;;;;;;;6.35;100.00;95573.25;5012120;28;21020;-75
2022/04/06 00:04:38;;;;;;;12.90;10.70;;;;;;;6.30;100.00;95570.81;5028205;28;20464;-75
2022/04/06 00:07:05;;;;;;;13.27;11.07;;;;;;;6.21;100.00;95552.47;5007305;28;20461;-75
2022/04/06 00:09:32;;;;;;;12.87;11.00;;;;;;;6.35;100.00;95565.38;5028364;28;20528;-76
2022/04/06 00:11:58;;;;;;;15.20;12.93;;;;;;;6.13;100.00;95529.66;5012059;28;20449;-77
2022/04/06 00:14:25;;;;;;;13.23;10.37;;;;;;;6.25;100.00;95547.34;5028286;28;20504;-77
2022/04/06 00:16:52;;;;;;;14.50;12.47;;;;;;;6.16;100.00;95541.41;4995976;28;21021;-77
2022/04/06 00:19:18;;;;;;;12.03;9.43;;;;;;;6.34;100.00;95558.59;5012265;28;21342;-75
2022/04/06 00:21:45;;;;;;;15.63;12.77;;;;;;;6.34;100.00;95561.22;5012020;28;20450;-77
2022/04/06 00:24:12;;;;;;;15.77;12.77;;;;;;;6.38;100.00;95563.97;5012222;28;20447;-77
2022/04/06 00:26:39;;;;;;;14.47;12.90;;;;;;;6.38;100.00;95548.22;5011778;28;20523;-77
2022/04/06 00:29:06;;;;;;;19.73;12.90;;;;;;;6.38;100.00;95556.84;5012045;28;20495;-77
2022/04/06 00:31:32;;;;;;;12.37;11.17;;;;;;;6.33;100.00;95545.78;4995969;28;20435;-77
2022/04/06 00:33:59;;;;;;;15.17;12.70;;;;;;;6.22;100.00;95524.38;5011170;28;20469;-77
2022/04/06 00:36:26;;;;;;;14.20;12.40;;;;;;;6.46;100.00;95552.66;5018686;28;20497;-77
2022/04/06 00:38:52;;;;;;;13.40;11.97;;;;;;;6.30;100.00;95528.06;5009757;28;20891;-77
2022/04/06 00:41:19;;;;;;;12.07;9.83;;;;;;;6.47;100.00;95547.09;5022851;28;20540;-77
2022/04/06 00:44:17;;;;;;;15.07;13.07;;;;;;;6.48;100.00;95556.50;5014322;28;20445;-77
2022/04/06 00:46:45;;;;;;;14.83;12.00;;;;;;;6.31;100.00;95519.84;5001745;28;20495;-77
2022/04/06 00:49:14;;;;;;;12.73;11.43;;;;;;;6.37;100.00;95529.06;5011519;28;20536;-77
2022/04/06 00:51:49;;;;;;;15.97;12.67;;;;;;;6.43;100.00;95533.06;5011633;28;20992;-77
2022/04/06 00:54:19;;;;;;;13.37;12.07;;;;;;;6.50;100.00;95535.94;4995369;28;20495;-77
2022/04/06 00:56:46;;;;;;;12.30;10.90;;;;;;;6.52;100.00;95530.38;5011792;28;20953;-77
2022/04/06 00:59:17;;;;;;;12.33;10.97;;;;;;;6.52;100.00;95525.88;5013182;28;20425;-77
2022/04/06 01:01:49;;;;;;;10.90;9.73;;;;;;;6.56;100.00;95520.00;5011523;28;20926;-77
2022/04/06 01:04:17;;;;;;;10.73;9.50;;;;;;;6.36;100.00;95496.03;5011667;28;20417;-77
2022/04/06 01:06:48;;;;;;;10.30;9.20;;;;;;;6.48;100.00;95517.13;5028125;28;20480;-77
2022/04/06 01:09:20;;;;;;;9.20;7.77;;;;;;;6.57;100.00;95522.31;5013066;28;20527;-77
2022/04/06 01:11:51;;;;;;;11.13;8.90;;;;;;;6.43;100.00;95504.19;5017435;28;20960;-77
2022/04/06 01:14:20;;;;;;;13.53;9.93;;;;;;;6.35;100.00;95496.34;5030802;28;20474;-77
2022/04/06 01:17:03;;;;;;;12.50;10.40;;;;;;;6.59;100.00;95522.00;5012883;28;20457;-77
2022/04/06 01:19:40;;;;;;;8.13;7.00;;;;;;;6.66;100.00;95522.22;5011154;28;20477;-76
2022/04/06 01:22:08;;;;;;;9.63;8.63;;;;;;;6.37;100.00;95473.94;4995338;28;20479;-77
2022/04/06 01:24:35;;;;;;;9.60;8.33;;;;;;;6.32;100.00;95462.88;5017439;28;20941;-77
2022/04/06 01:27:02;;;;;;;9.57;8.57;;;;;;;6.51;100.00;95503.34;5019491;28;20487;-75
2022/04/06 01:29:29;;;;;;;9.27;7.90;;;;;;;6.59;100.00;95503.59;5028579;28;20425;-77
2022/04/06 01:32:09;;;;;;;12.67;8.13;;;;;;;6.73;100.00;95523.28;5012559;28;20520;-77
2022/04/06 01:34:36;;;;;;;8.17;7.37;;;;;;;6.71;100.00;95522.81;4992383;28;20481;-77
2022/04/06 01:37:05;;;;;;;9.03;8.13;;;;;;;6.57;100.00;95508.41;5006295;28;20973;-77
2022/04/06 01:39:32;;;;;;;8.27;7.37;;;;;;;6.72;100.00;95529.63;5027202;28;20540;-77
2022/04/06 01:41:59;;;;;;;9.80;8.80;;;;;;;6.57;100.00;95508.41;5010552;28;20796;-77
2022/04/06 01:44:26;;;;;;;7.40;6.70;;;;;;;6.48;100.00;95487.47;5010544;28;20430;-77
2022/04/06 01:46:53;;;;;;;8.73;6.60;;;;;;;6.18;100.00;95431.63;5023595;28;20489;-77
2022/04/06 01:52:15;;;;;;;7.20;6.50;;;;;;;6.76;100.00;95529.72;5012636;28;20801;-77
2022/04/06 01:54:48;;;;;;;7.43;6.33;;;;;;;6.77;100.00;95528.66;5026982;28;21085;-77
2022/04/06 01:57:16;;;;;;;9.00;7.87;;;;;;;6.40;100.00;95475.16;5005591;28;20862;-77
2022/04/06 01:59:43;;;;;;;9.33;7.50;;;;;;;6.77;100.00;95531.28;5017649;28;20440;-77
2022/04/06 02:02:13;;;;;;;7.30;6.60;;;;;;;6.74;100.00;95535.31;5026976;28;20438;-77
2022/04/06 02:04:41;;;;;;;10.47;8.70;;;;;;;6.60;100.00;95513.03;5015114;28;20453;-77
2022/04/06 02:07:13;;;;;;;12.33;7.93;;;;;;;6.71;100.00;95535.19;5029968;28;20451;-77
2022/04/06 02:09:40;;;;;;;8.20;7.40;;;;;;;6.71;100.00;95516.81;5018527;28;20472;-77
2022/04/06 02:12:08;;;;;;;8.20;7.33;;;;;;;6.48;100.00;95479.59;5020837;28;20481;-77
2022/04/06 02:14:35;;;;;;;8.50;6.80;;;;;;;6.76;100.00;95527.88;5026512;28;20548;-77
2022/04/06 02:17:07;;;;;;;6.77;5.60;;;;;;;6.78;100.00;95528.31;5010197;28;21012;-77
2022/04/06 02:19:36;;;;;;;7.67;6.80;;;;;;;6.71;100.00;95508.94;5043295;28;20432;-77
2022/04/06 02:22:07;;;;;;;8.60;6.80;;;;;;;6.80;100.00;95523.50;5026632;28;20443;-77
2022/04/06 02:24:34;;;;;;;7.47;6.73;;;;;;;6.63;100.00;95500.00;5010343;28;20445;-77
2022/04/06 02:27:01;;;;;;;7.53;6.20;;;;;;;6.62;100.00;95500.34;5010318;28;21062;-77
2022/04/06 02:29:28;;;;;;;8.20;6.67;;;;;;;6.81;100.00;95519.03;5010394;28;20507;-77
2022/04/06 02:31:54;;;;;;;7.07;6.37;;;;;;;6.75;100.00;95510.59;5010176;28;20438;-77
2022/04/06 02:34:21;;;;;;;7.07;5.90;;;;;;;6.71;100.00;95493.16;5010315;28;20498;-77
2022/04/06 02:36:48;;;;;;;7.03;6.33;;;;;;;6.60;100.00;95474.41;5022155;28;20494;-77
2022/04/06 02:39:15;;;;;;;7.60;6.90;;;;;;;6.82;100.00;95502.19;5000795;28;20775;-77
2022/04/06 02:41:42;;;;;;;7.87;6.47;;;;;;;6.65;100.00;95476.81;5019145;28;20434;-77
2022/04/06 02:44:08;;;;;;;8.43;6.00;;;;;;;6.83;100.00;95509.00;5006776;28;20949;-77
2022/04/06 02:46:35;;;;;;;6.77;6.10;;;;;;;6.81;100.00;95508.50;4995167;28;20874;-77
2022/04/06 02:49:02;;;;;;;8.60;6.80;;;;;;;6.52;100.00;95467.34;5010368;28;20475;-77
2022/04/06 02:51:28;;;;;;;6.47;5.80;;;;;;;6.63;100.00;95478.22;5011641;28;20528;-77
2022/04/06 02:53:55;;;;;;;6.87;6.17;;;;;;;6.63;100.00;95468.50;5023588;28;20465;-77
2022/04/06 02:56:21;;;;;;;8.00;6.57;;;;;;;6.63;100.00;95478.22;5022817;28;20816;-77
2022/04/06 02:58:48;;;;;;;8.23;5.80;;;;;;;6.73;100.00;95485.72;5012752;28;20471;-77
2022/04/06 03:01:15;;;;;;;8.37;6.90;;;;;;;6.56;100.00;95457.00;5010289;28;20531;-77
2022/04/06 03:03:42;;;;;;;7.90;6.47;;;;;;;6.84;100.00;95494.75;5044213;28;20874;-77
2022/04/06 03:06:09;;;;;;;7.67;6.90;;;;;;;6.58;100.00;95450.31;5046532;28;21101;-77
2022/04/06 03:08:35;;;;;;;7.00;6.40;;;;;;;6.77;100.00;95479.50;5001990;28;20424;-77
2022/04/06 03:11:02;;;;;;;6.87;5.80;;;;;;;6.68;100.00;95459.66;5013844;28;20890;-77
2022/04/06 03:13:29;;;;;;;7.67;6.90;;;;;;;6.66;100.00;95462.59;4978758;28;20812;-77
2022/04/06 03:15:56;;;;;;;6.73;6.07;;;;;;;6.88;100.00;95485.13;5008974;28;20471;-77
2022/04/06 03:18:23;;;;;;;5.10;4.60;;;;;;;6.62;100.00;95429.44;5014099;28;20490;-77
2022/04/06 03:20:49;;;;;;;9.57;5.67;;;;;;;6.76;100.00;95448.31;5027239;28;20884;-77
2022/04/06 03:23:16;;;;;;;6.10;5.50;;;;;;;6.48;100.00;95404.22;5022645;28;20442;-77
2022/04/06 03:25:43;;;;;;;5.23;4.73;;;;;;;6.94;100.00;95477.81;5019284;28;20460;-78
2022/04/06 03:28:10;;;;;;;5.20;4.70;;;;;;;6.92;100.00;95483.38;5013208;28;20440;-77
2022/04/06 03:30:37;;;;;;;6.90;5.63;;;;;;;6.81;100.00;95459.41;5014707;28;20437;-77
2022/04/06 03:33:04;;;;;;;6.00;5.40;;;;;;;6.78;100.00;95460.03;4996869;28;20446;-77
2022/04/06 03:35:30;;;;;;;5.27;4.83;;;;;;;6.79;100.00;95453.69;5029473;28;20997;-77
2022/04/06 03:37:57;;;;;;;5.50;5.00;;;;;;;6.80;100.00;95475.47;5013218;28;20528;-77
2022/04/06 03:40:24;;;;;;;5.17;4.23;;;;;;;6.93;100.00;95476.28;5013135;28;20441;-75
2022/04/06 03:42:51;;;;;;;8.20;7.40;;;;;;;6.68;100.00;95443.91;5012866;28;20476;-75
2022/04/06 03:45:17;;;;;;;23.43;21.00;;;;;;;6.90;100.00;95480.31;5028895;28;20448;-75
2022/04/06 03:47:47;;;;;;;6.87;6.17;;;;;;;6.76;100.00;95454.31;5013069;28;20540;-76
2022/04/06 03:50:14;;;;;;;5.70;5.20;;;;;;;6.55;100.00;95416.06;5012678;28;20448;-75
2022/04/06 03:52:41;;;;;;;6.17;5.50;;;;;;;6.87;100.00;95469.69;5014088;28;20532;-75
2022/04/06 03:55:09;;;;;;;5.40;4.90;;;;;;;6.27;100.00;95366.69;4996201;28;20461;-75
2022/04/06 03:57:36;;;;;;;7.60;6.90;;;;;;;6.86;100.00;95468.94;5020059;28;20818;-76
2022/04/06 04:00:12;;;;;;;6.10;5.60;;;;;;;6.88;100.00;95464.13;5011427;28;20444;-75
2022/04/06 04:02:39;;;;;;;6.50;6.00;;;;;;;6.80;100.00;95454.44;5005705;28;20449;-76
2022/04/06 04:05:06;;;;;;;6.77;6.17;;;;;;;6.79;100.00;95448.41;5013229;28;20437;-76
2022/04/06 04:07:37;;;;;;;5.73;5.20;;;;;;;6.95;100.00;95482.00;5016252;28;20450;-77
2022/04/06 04:10:09;;;;;;;6.30;5.60;;;;;;;6.81;100.00;95467.28;5017763;28;20957;-77
2022/04/06 04:12:38;;;;;;;6.80;6.20;;;;;;;6.99;100.00;95480.25;5017032;28;20460;-77
2022/04/06 04:15:06;;;;;;;5.63;5.00;;;;;;;6.90;100.00;95476.94;4999703;28;20465;-77
2022/04/06 04:17:33;;;;;;;4.90;4.50;;;;;;;6.89;100.00;95473.53;5029049;28;20507;-77
2022/04/06 04:19:59;;;;;;;5.63;5.17;;;;;;;6.79;100.00;95456.31;4986402;28;20437;-76
2022/04/06 04:22:26;;;;;;;5.93;4.70;;;;;;;6.99;100.00;95486.28;5015494;28;20460;-76
2022/04/06 04:24:53;;;;;;;5.10;4.70;;;;;;;6.91;100.00;95476.59;5002400;28;20533;-76
2022/04/06 04:27:20;;;;;;;6.30;5.77;;;;;;;6.98;100.00;95484.75;5015737;28;21048;-77
2022/04/06 04:29:46;;;;;;;7.60;5.53;;;;;;;6.60;100.00;95424.50;5034545;28;20907;-77
2022/04/06 04:32:15;;;;;;;5.83;5.33;;;;;;;6.97;100.00;95483.22;5021299;28;20956;-77
2022/04/06 04:34:42;;;;;;;7.33;6.63;;;;;;;6.73;100.00;95438.44;5013748;28;20454;-77
2022/04/06 04:37:09;;;;;;;5.17;4.73;;;;;;;6.99;100.00;95470.50;5014509;28;20445;-77
2022/04/06 04:39:35;;;;;;;6.60;5.70;;;;;;;6.72;100.00;95431.66;5020706;28;20501;-75
2022/04/06 04:42:03;;;;;;;5.57;5.07;;;;;;;6.98;100.00;95476.84;5033939;28;20545;-75
2022/04/06 04:44:29;;;;;;;7.80;5.53;;;;;;;6.63;100.00;95415.97;5013322;28;20493;-75
2022/04/06 04:46:56;;;;;;;6.23;5.70;;;;;;;6.79;100.00;95451.03;5045987;28;20516;-75
2022/04/06 04:49:23;;;;;;;6.10;5.57;;;;;;;6.98;100.00;95458.47;5047436;28;20444;-74
2022/04/06 04:51:50;;;;;;;5.70;5.20;;;;;;;6.85;100.00;95440.34;5033882;28;20445;-74
2022/04/06 04:54:17;;;;;;;5.67;5.17;;;;;;;6.76;100.00;95429.91;5030855;28;20578;-74
2022/04/06 04:56:43;;;;;;;6.13;5.63;;;;;;;6.86;100.00;95434.78;5030920;28;20564;-76
2022/04/06 04:59:10;;;;;;;6.37;5.43;;;;;;;7.01;100.00;95463.06;5031001;28;20994;-75
2022/04/06 05:01:37;;;;;;;7.20;6.50;;;;;;;6.78;100.00;95432.97;5028797;28;20484;-75
2022/04/06 05:04:04;;;;;;;7.43;6.63;;;;;;;6.80;100.00;95436.06;5010985;28;20451;-75
2022/04/06 05:06:30;;;;;;;5.37;4.83;;;;;;;6.79;100.00;95432.66;5045564;28;20926;-75
2022/04/06 05:08:57;;;;;;;6.80;6.20;;;;;;;6.88;100.00;95448.34;5047156;28;20444;-75
2022/04/06 05:11:24;;;;;;;8.50;7.50;;;;;;;6.73;100.00;95420.06;5030584;28;20448;-75
2022/04/06 05:13:51;;;;;;;7.50;5.83;;;;;;;6.84;100.00;95434.34;5022681;28;20432;-75
2022/04/06 05:16:17;;;;;;;8.67;7.20;;;;;;;6.84;100.00;95436.19;5029799;28;20562;-76
2022/04/06 05:18:46;;;;;;;6.17;5.67;;;;;;;7.05;100.00;95463.94;5021106;28;20519;-76
2022/04/06 05:21:12;;;;;;;5.90;5.40;;;;;;;6.34;100.00;95359.09;5013525;28;20483;-75
2022/04/06 05:23:39;;;;;;;6.07;5.53;;;;;;;6.87;100.00;95438.16;5014172;28;20475;-74
2022/04/06 05:26:05;;;;;;;7.80;7.00;;;;;;;7.09;100.00;95451.72;5013682;28;20444;-74
2022/04/06 05:28:32;;;;;;;7.17;6.10;;;;;;;7.03;100.00;95442.47;5010581;28;20972;-75
2022/04/06 05:30:59;;;;;;;8.50;6.87;;;;;;;7.09;100.00;95459.59;5010203;28;20539;-75
2022/04/06 05:33:25;;;;;;;7.13;6.43;;;;;;;6.87;100.00;95430.28;5017395;28;20438;-75
2022/04/06 05:35:53;;;;;;;7.93;7.13;;;;;;;7.10;100.00;95471.63;5010583;28;20484;-75
2022/04/06 05:38:19;;;;;;;7.43;6.73;;;;;;;6.93;100.00;95445.50;5012072;28;20433;-75
2022/04/06 05:40:46;;;;;;;6.90;5.57;;;;;;;7.09;100.00;95464.84;5010490;28;20860;-76
2022/04/06 05:43:13;;;;;;;7.97;7.10;;;;;;;6.78;100.00;95425.88;5010242;28;20445;-75
2022/04/06 05:45:39;;;;;;;8.03;6.97;;;;;;;6.99;100.00;95467.09;5026905;28;20906;-76
2022/04/06 05:48:07;;;;;;;6.10;5.50;;;;;;;7.06;100.00;95478.63;5043286;28;20447;-75
2022/04/06 05:50:33;;;;;;;18.20;13.37;;;;;;;7.11;100.00;95485.53;5023438;28;20544;-75
2022/04/06 05:53:00;;;;;;;13.57;12.13;;;;;;;7.17;100.00;95491.34;5010476;28;20491;-75
2022/04/06 05:55:27;;;;;;;9.77;6.77;;;;;;;7.05;100.00;95471.06;5028234;28;20494;-76
2022/04/06 05:57:54;;;;;;;7.63;6.07;;;;;;;7.08;100.00;95467.81;5018521;28;20456;-76
2022/04/06 06:00:20;;;;;;;8.50;7.70;;;;;;;7.15;100.00;95480.41;5011752;28;20529;-75
2022/04/06 06:02:47;;;;;;;10.60;8.40;;;;;;;7.14;100.00;95482.25;4993995;28;20551;-75
2022/04/06 06:05:14;;;;;;;6.70;6.00;;;;;;;6.80;100.00;95412.41;5024629;28;20433;-75
2022/04/06 06:07:40;;;;;;;8.23;6.40;;;;;;;6.75;100.00;95410.00;5010066;28;20457;-74
2022/04/06 06:10:08;;;;;;;6.03;5.43;;;;;;;7.26;100.00;95476.28;5028850;28;20983;-75
2022/04/06 06:12:36;;;;;;;6.53;5.90;;;;;;;7.30;100.00;95487.66;5010212;28;20520;-75
2022/04/06 06:15:06;;;;;;;6.20;5.60;;;;;;;6.63;100.00;95378.44;5017965;28;21010;-75
2022/04/06 06:17:38;;;;;;;8.00;6.43;;;;;;;7.11;100.00;95441.63;5062927;28;20806;-75
2022/04/06 06:20:05;;;;;;;7.20;6.50;;;;;;;7.26;100.00;95465.75;5062785;28;20526;-75
2022/04/06 06:22:33;;;;;;;7.57;6.80;;;;;;;7.39;100.00;95472.56;5046219;28;21098;-75
2022/04/06 06:25:00;;;;;;;6.00;5.40;;;;;;;7.34;100.00;95470.13;5013470;28;20871;-75
2022/04/06 06:27:27;;;;;;;7.20;6.50;;;;;;;7.26;100.00;95457.88;5062586;28;20530;-74
2022/04/06 06:29:53;;;;;;;7.87;6.43;;;;;;;7.29;100.00;95459.84;5037884;28;20437;-75
2022/04/06 06:32:20;;;;;;;7.20;5.83;;;;;;;7.19;100.00;95447.88;5010080;28;20964;-75
2022/04/06 06:34:46;;;;;;;7.03;6.37;;;;;;;7.31;100.00;95466.31;5015058;28;20496;-75
2022/04/06 06:37:13;;;;;;;6.87;5.43;;;;;;;7.23;100.00;95461.94;5013674;28;20561;-74
2022/04/06 06:39:40;;;;;;;7.40;6.70;;;;;;;6.99;100.00;95423.22;5004762;28;20470;-75
2022/04/06 06:42:07;;;;;;;6.63;5.97;;;;;;;7.32;100.00;95469.69;5022781;28;20530;-75
2022/04/06 06:44:33;;;;;;;6.93;6.27;;;;;;;6.81;100.00;95403.44;5013621;28;20957;-75
2022/04/06 06:47:00;;;;;;;5.50;5.10;;;;;;;7.24;100.00;95460.81;5029390;28;20451;-75
2022/04/06 06:49:27;;;;;;;7.83;5.97;;;;;;;6.98;100.00;95423.53;5016883;28;20507;-75
2022/04/06 06:51:53;;;;;;;9.83;6.70;;;;;;;7.31;100.00;95468.16;5033150;28;20531;-74
2022/04/06 06:54:20;;;;;;;7.80;7.10;;;;;;;7.07;100.00;95442.59;5056603;28;20425;-74
2022/04/06 06:56:47;;;;;;;7.33;6.63;;;;;;;7.06;100.00;95435.81;5015067;28;20936;-74
2022/04/06 06:59:14;;;;;;;8.30;6.70;;;;;;;7.17;100.00;95457.19;5016996;28;20443;-74
2022/04/06 07:01:40;;;;;;;8.70;7.77;;;;;;;7.24;100.00;95468.72;5066611;28;20487;-74
2022/04/06 07:04:12;;;;;;;6.93;6.33;;;;;;;7.08;100.00;95452.81;5034691;28;20880;-74
2022/04/06 07:06:39;;;;;;;7.43;6.73;;;;;;;7.17;100.00;95468.47;5016751;28;20467;-74
2022/04/06 07:09:05;;;;;;;8.83;7.23;;;;;;;6.89;100.00;95417.59;5033060;28;20459;-74
2022/04/06 07:11:32;;;;;;;7.10;6.50;;;;;;;7.20;100.00;95464.41;5015494;28;20453;-74
2022/04/06 07:13:59;;;;;;;7.80;6.80;;;;;;;6.94;100.00;95415.50;5002105;28;20446;-74
2022/04/06 07:16:25;;;;;;;9.50;7.40;;;;;;;7.25;100.00;95465.00;5029104;28;20471;-74
2022/04/06 07:18:52;;;;;;;30.43;24.03;;;;;;;7.06;100.00;95412.91;5034280;28;20492;-75
2022/04/06 07:21:19;;;;;;;7.10;6.43;;;;;;;7.29;100.00;95436.19;5032888;28;20446;-74
2022/04/06 07:23:46;;;;;;;8.60;7.80;;;;;;;7.35;100.00;95435.66;5032839;28;20535;-74
2022/04/06 07:26:16;;;;;;;9.27;7.57;;;;;;;7.28;100.00;95414.38;5066030;28;20502;-74
2022/04/06 07:28:46;;;;;;;7.67;6.97;;;;;;;7.59;100.00;95452.53;5065915;28;20443;-74
2022/04/06 07:31:13;;;;;;;7.20;6.30;;;;;;;7.32;100.00;95414.50;5016173;28;20535;-74
2022/04/06 07:33:40;;;;;;;6.80;6.20;;;;;;;7.43;100.00;95423.50;5032451;28;20479;-75
2022/04/06 07:36:07;;;;;;;7.40;6.13;;;;;;;7.59;100.00;95437.53;5018900;28;20509;-75
2022/04/06 07:38:34;;;;;;;7.53;6.80;;;;;;;7.59;100.00;95424.38;5032486;28;20452;-74
2022/04/06 07:41:00;;;;;;;8.23;6.30;;;;;;;7.53;100.00;95404.66;5032460;28;20464;-75
2022/04/06 07:43:27;;;;;;;6.03;5.40;;;;;;;7.77;100.00;95434.69;5032000;28;20455;-75
2022/04/06 07:45:54;;;;;;;7.27;6.47;;;;;;;7.62;100.00;95404.56;5016192;28;20503;-74
2022/04/06 07:48:22;;;;;;;6.97;6.30;;;;;;;7.80;100.00;95423.50;5025864;28;20538;-75
2022/04/06 07:50:57;;;;;;;8.17;5.53;;;;;;;7.79;100.00;95424.59;5032488;28;20532;-74
2022/04/06 07:53:23;;;;;;;6.90;5.93;;;;;;;7.82;100.00;95423.94;5052262;28;20437;-74
2022/04/06 07:55:51;;;;;;;9.20;8.20;;;;;;;7.93;100.00;95440.81;5025134;28;20531;-74
2022/04/06 07:58:20;;;;;;;7.20;6.23;;;;;;;7.90;100.00;95438.84;5028546;28;20469;-75
2022/04/06 08:00:47;;;;;;;6.67;4.70;;;;;;;7.89;100.00;95442.59;5045303;28;20444;-75
2022/04/06 08:03:14;;;;;;;6.10;5.50;;;;;;;7.81;100.00;95422.41;5028046;28;20436;-74
2022/04/06 08:05:40;;;;;;;6.53;5.43;;;;;;;7.83;100.00;95428.09;5015565;28;20459;-74
2022/04/06 08:08:07;;;;;;;6.20;5.60;;;;;;;7.72;100.00;95410.13;5065117;28;20510;-75
2022/04/06 08:10:34;;;;;;;5.87;4.93;;;;;;;7.89;100.00;95439.94;5031819;28;20826;-75
2022/04/06 08:13:05;;;;;;;5.70;5.23;;;;;;;8.03;100.00;95453.53;5050669;28;20536;-76
2022/04/06 08:15:32;;;;;;;6.97;6.27;;;;;;;8.04;100.00;95451.66;5031609;28;20535;-74
2022/04/06 08:17:59;;;;;;;5.87;5.33;;;;;;;7.92;100.00;95442.69;5015485;28;20488;-75
2022/04/06 08:20:26;;;;;;;6.63;5.30;;;;;;;7.65;100.00;95399.38;5031584;28;20471;-75
2022/04/06 08:22:53;;;;;;;11.40;6.77;;;;;;;7.90;100.00;95455.41;5014301;28;20425;-75
2022/04/06 08:25:20;;;;;;;10.90;5.67;;;;;;;7.76;100.00;95430.53;5013036;28;20429;-75
2022/04/06 08:28:03;;;;;;;7.33;5.37;;;;;;;8.03;100.00;95464.06;5021881;28;20441;-75
2022/04/06 08:30:30;;;;;;;4.90;4.43;;;;;;;8.06;100.00;95437.06;5051162;28;20520;-75
2022/04/06 08:32:59;;;;;;;5.30;4.90;;;;;;;8.38;100.00;95456.44;5031331;28;20535;-75
2022/04/06 08:35:26;;;;;;;8.33;5.33;;;;;;;8.38;100.00;95448.53;5001624;28;20465;-75
2022/04/06 08:37:53;;;;;;;4.63;4.13;;;;;;;8.31;100.00;95429.91;5032524;28;20768;-75
2022/04/06 08:40:20;;;;;;;5.77;5.20;;;;;;;8.39;100.00;95429.00;5030147;28;20456;-75
2022/04/06 08:42:47;;;;;;;7.23;5.60;;;;;;;8.50;100.00;95424.81;5044254;28;20488;-76
2022/04/06 08:45:16;;;;;;;5.20;4.60;;;;;;;8.80;100.00;95453.47;5011551;28;21065;-76
2022/04/06 08:47:49;;;;;;;8.00;5.43;;;;;;;8.66;100.00;95413.56;5020056;28;20550;-76
2022/04/06 08:50:18;;;;;;;5.57;4.10;;;;;;;8.93;100.00;95444.41;5017910;28;20478;-75
2022/04/06 08:52:45;;;;;;;9.10;5.20;;;;;;;8.85;100.00;95435.56;5037866;28;20480;-76
2022/04/06 08:55:26;;;;;;;9.00;6.07;;;;;;;8.78;100.00;95442.50;5016961;28;20457;-75
2022/04/06 08:57:55;;;;;;;9.30;3.80;;;;;;;8.48;100.00;95392.78;5003270;28;20487;-76
2022/04/06 09:00:21;;;;;;;6.53;3.43;;;;;;;8.67;100.00;95418.47;5024306;28;20958;-75
2022/04/06 09:02:48;;;;;;;6.03;4.60;;;;;;;8.78;100.00;95445.91;5015246;28;20445;-76
2022/04/06 09:05:19;;;;;;;5.73;5.17;;;;;;;8.52;100.00;95419.97;5011684;28;20444;-75
2022/04/06 09:07:53;;;;;;;12.67;6.47;;;;;;;8.45;100.00;95419.03;5016135;28;20441;-75
2022/04/06 09:10:33;;;;;;;4.50;4.10;;;;;;;8.62;100.00;95450.34;5019357;28;20457;-75
2022/04/06 09:13:11;;;;;;;4.93;4.43;;;;;;;8.62;100.00;95455.63;5007202;28;20436;-75
2022/04/06 09:15:38;;;;;;;5.60;4.77;;;;;;;8.38;100.00;95403.78;5031874;28;21004;-75
2022/04/06 09:18:05;;;;;;;4.10;3.80;;;;;;;8.45;100.00;95401.34;5037519;28;20445;-76
2022/04/06 09:20:32;;;;;;;5.27;4.80;;;;;;;8.68;100.00;95454.28;5040546;28;20871;-76
2022/04/06 09:23:03;;;;;;;6.33;4.70;;;;;;;8.67;100.00;95450.09;5010835;28;20440;-76
2022/04/06 09:25:38;;;;;;;5.80;4.73;;;;;;;8.69;100.00;95445.28;5013814;28;20468;-76
2022/04/06 09:28:06;;;;;;;6.43;5.50;;;;;;;8.73;100.00;95442.75;4999098;28;20442;-76
2022/04/06 09:30:35;;;;;;;12.63;5.17;;;;;;;8.61;100.00;95455.97;5025676;28;20553;-76
2022/04/06 09:33:03;;;;;;;4.87;4.33;;;;;;;8.34;100.00;95413.44;5039190;28;20855;-76
2022/04/06 09:35:34;;;;;;;6.73;4.20;;;;;;;8.47;100.00;95411.53;5018164;28;20463;-75
2022/04/06 09:38:14;;;;;;;4.70;4.20;;;;;;;8.87;100.00;95448.38;5016964;28;20488;-76
2022/04/06 09:40:42;;;;;;;5.10;4.60;;;;;;;8.82;100.00;95417.03;5022781;28;20429;-76
2022/04/06 09:43:23;;;;;;;11.50;9.53;;;;;;;9.15;100.00;95443.09;5023692;28;20436;-76
2022/04/06 09:48:53;;;;;;;5.30;4.80;;;;;;;9.31;100.00;95428.03;5017258;28;20455;-76
2022/04/06 09:51:21;;;;;;;4.57;4.00;;;;;;;9.63;100.00;95435.97;5016865;28;20490;-76
2022/04/06 09:53:52;;;;;;;14.53;4.40;;;;;;;8.94;100.00;95342.34;5021867;28;20954;-76
2022/04/06 09:56:21;;;;;;;4.23;3.83;;;;;;;9.25;100.00;95418.88;5013945;28;20503;-76
2022/04/06 09:58:48;;;;;;;3.77;3.37;;;;;;;9.37;100.00;95429.34;5036101;28;20449;-76
2022/04/06 10:01:16;;;;;;;6.00;5.40;;;;;;;9.39;100.00;95410.53;5027704;28;20872;-75
2022/04/06 10:03:54;;;;;;;7.20;6.50;;;;;;;9.41;100.00;95395.88;5062865;28;20456;-76
2022/04/06 10:06:22;;;;;;;4.83;4.30;;;;;;;9.71;100.00;95421.81;4994021;28;20452;-76
2022/04/06 10:08:50;;;;;;;5.50;5.00;;;;;;;9.81;100.00;95425.81;5026109;28;20531;-75
2022/04/06 10:11:18;;;;;;;3.83;3.50;;;;;;;9.71;100.00;95413.91;5046006;28;20510;-76
2022/04/06 10:13:46;;;;;;;4.60;3.87;;;;;;;10.01;100.00;95409.66;5029865;28;20839;-76
2022/04/06 10:16:23;;;;;;;4.33;3.50;;;;;;;10.30;100.00;95408.44;5003786;28;20469;-75
2022/04/06 10:18:51;;;;;;;18.60;14.27;;;;;;;10.47;100.00;95409.16;5026900;28;20438;-75
2022/04/06 10:21:43;;;;;;;27.90;19.77;;;;;;;10.43;100.00;95406.44;5010980;28;20806;-76
2022/04/06 10:24:19;;;;;;;40.80;26.23;;;;;;;10.59;100.00;95393.91;5018969;28;20820;-75
2022/04/06 10:26:46;;;;;;;11.70;8.63;;;;;;;10.25;100.00;95378.88;5010140;28;20564;-75
2022/04/06 10:29:13;;;;;;;5.30;4.77;;;;;;;9.59;100.00;95330.31;5026377;28;20688;-75
2022/04/06 10:31:40;;;;;;;3.17;2.87;;;;;;;9.65;100.00;95357.22;5026731;28;20437;-75
2022/04/06 10:34:25;;;;;;;6.63;3.87;;;;;;;9.51;100.00;95343.72;5029624;28;20564;-76
2022/04/06 10:37:12;;;;;;;4.00;3.60;;;;;;;9.76;100.00;95380.13;5026168;28;20845;-76
2022/04/06 10:39:58;;;;;;;3.50;3.20;;;;;;;9.58;100.00;95349.91;5026422;28;20795;-76
2022/04/06 10:42:32;;;;;;;7.03;4.57;;;;;;;9.75;100.00;95370.66;5029689;28;20461;-76
2022/04/06 10:44:59;;;;;;;3.97;3.60;;;;;;;9.68;100.00;95354.66;5016510;28;20464;-76
2022/04/06 10:47:29;;;;;;;4.70;3.60;;;;;;;9.91;100.00;95362.69;5016410;28;20456;-75
2022/04/06 10:50:07;;;;;;;3.53;3.23;;;;;;;9.89;100.00;95377.38;5020945;28;20498;-76
2022/04/06 10:52:34;;;;;;;6.63;3.63;;;;;;;10.09;100.00;95370.97;5049607;28;20507;-77
2022/04/06 10:55:20;;;;;;;3.37;3.10;;;;;;;10.12;100.00;95353.69;5022016;28;20418;-77
2022/04/06 10:58:04;;;;;;;3.47;3.17;;;;;;;10.11;100.00;95373.28;5024176;28;20494;-76
2022/04/06 11:00:32;;;;;;;4.37;3.57;;;;;;;10.22;100.00;95321.47;5010702;28;20766;-76
2022/04/06 11:03:19;;;;;;;8.33;4.03;;;;;;;10.78;100.00;95363.28;5021720;28;20445;-76
2022/04/06 11:05:52;;;;;;;8.20;3.53;;;;;;;10.56;100.00;95341.00;5023676;28;21368;-76
2022/04/06 11:11:45;;;;;;;7.20;4.37;;;;;;;10.47;100.00;95341.19;5017960;28;20439;-77
2022/04/06 11:14:32;;;;;;;4.00;3.30;;;;;;;10.33;100.00;95346.97;5016894;28;20445;-76
2022/04/06 11:16:58;;;;;;;3.67;3.37;;;;;;;9.76;100.00;95268.50;5029287;28;20464;-77
2022/04/06 11:19:25;;;;;;;2.50;2.23;;;;;;;10.20;100.00;95342.91;5001620;28;20444;-76
2022/04/06 11:21:55;;;;;;;3.73;3.30;;;;;;;10.31;100.00;95320.16;5038657;28;20515;-76
2022/04/06 11:24:24;;;;;;;4.03;3.73;;;;;;;10.57;100.00;95329.31;5014660;28;20993;-77
2022/04/06 11:26:52;;;;;;;3.53;3.23;;;;;;;10.94;100.00;95334.84;5025889;28;20467;-77
2022/04/06 11:29:19;;;;;;;9.43;4.97;;;;;;;10.73;100.00;95347.72;5027382;28;20479;-76
2022/04/06 11:31:55;;;;;;;19.70;12.27;;;;;;;10.46;100.00;95325.69;5015410;28;20441;-78
2022/04/06 11:34:36;;;;;;;6.60;4.90;;;;;;;10.65;100.00;95292.06;5015545;28;20434;-77
2022/04/06 11:37:06;;;;;;;3.27;2.87;;;;;;;10.74;100.00;95326.22;5026912;28;20819;-77
2022/04/06 11:39:33;;;;;;;3.30;3.00;;;;;;;10.88;100.00;95307.19;5023187;28;20440;-75
2022/04/06 11:42:01;;;;;;;4.87;3.47;;;;;;;11.09;100.00;95326.06;5019725;28;20515;-76
2022/04/06 11:44:29;;;;;;;4.17;3.70;;;;;;;11.43;100.00;95308.41;5032808;28;20445;-76
2022/04/06 11:46:56;;;;;;;3.23;2.90;;;;;;;11.46;100.00;95320.16;5044990;28;20523;-76